Time;durP1;ratioP1;P1;durP2;ratioP2;P2;SDS_P1;SDS_P2;PMS_P1;PMS_P2;Temp;Humidity;BMP_temperature;BMP_pressure;BME280_temperature;BME280_humidity;BME280_pressure;Samples;Min_cycle;Max_cycle;Signal;HPM_P1;HPM_P2
2022/10/26 00:04:50;;;;;;;1.35;0.80;;;16.80;74.80;;;;;;10466423;28;20478;-67
2022/10/26 00:09:51;;;;;;;1.40;1.00;;;16.80;74.80;;;;;;10466730;28;20033;-67
2022/10/26 00:14:51;;;;;;;1.73;1.10;;;16.80;74.80;;;;;;10462457;28;20640;-67
2022/10/26 00:19:52;;;;;;;1.40;0.95;;;16.80;74.70;;;;;;10461180;28;20503;-68
2022/10/26 00:24:53;;;;;;;1.10;0.73;;;16.80;74.70;;;;;;10462113;28;20541;-67
2022/10/26 00:29:53;;;;;;;1.58;1.20;;;16.80;74.80;;;;;;10471221;28;20040;-68
2022/10/26 00:34:54;;;;;;;2.13;1.20;;;16.80;74.70;;;;;;10486682;28;20501;-68
2022/10/26 00:39:55;;;;;;;2.25;1.42;;;16.80;74.70;;;;;;10486297;28;20021;-67
2022/10/26 00:45:00;;;;;;;1.52;1.05;;;16.80;74.70;;;;;;10485951;28;20096;-67
2022/10/26 00:50:16;;;;;;;2.05;1.08;;;16.80;74.70;;;;;;10441990;28;20095;-67
2022/10/26 00:55:22;;;;;;;1.30;1.10;;;16.80;74.70;;;;;;10468205;28;20017;-67
2022/10/26 01:00:22;;;;;;;1.30;0.93;;;16.80;74.70;;;;;;10452628;28;20018;-67
2022/10/26 01:05:24;;;;;;;1.63;0.90;;;16.70;74.70;;;;;;10484607;28;20012;-68
2022/10/26 01:10:26;;;;;;;0.90;0.70;;;16.70;74.70;;;;;;10485553;28;20029;-67
2022/10/26 01:15:59;;;;;;;1.30;1.00;;;16.70;74.70;;;;;;10468255;28;20043;-68
2022/10/26 01:21:39;;;;;;;1.35;0.90;;;16.70;74.60;;;;;;10453704;28;20439;-68
2022/10/26 01:26:56;;;;;;;1.07;0.67;;;16.70;74.60;;;;;;10444077;28;20037;-68
2022/10/26 01:32:09;;;;;;;1.65;0.98;;;16.70;74.70;;;;;;10441886;28;20029;-68
2022/10/26 01:37:30;;;;;;;1.42;1.00;;;16.70;74.70;;;;;;10483859;28;20028;-68
2022/10/26 01:42:32;;;;;;;1.58;1.10;;;16.70;74.60;;;;;;10483312;28;20025;-67
2022/10/26 01:47:35;;;;;;;1.67;1.15;;;16.70;74.70;;;;;;10475608;28;20120;-67
2022/10/26 01:52:36;;;;;;;1.85;1.00;;;16.70;74.70;;;;;;10458257;28;20351;-67
2022/10/26 01:57:37;;;;;;;1.88;1.20;;;16.70;74.70;;;;;;10458577;28;20423;-67
2022/10/26 02:03:04;;;;;;;1.40;0.88;;;16.70;74.60;;;;;;10445023;28;20032;-68
2022/10/26 02:08:41;;;;;;;1.52;0.98;;;16.70;74.60;;;;;;10485060;28;20028;-68
2022/10/26 02:14:21;;;;;;;2.40;1.10;;;16.70;74.60;;;;;;10482772;28;20070;-68
2022/10/26 02:19:51;;;;;;;1.07;0.80;;;16.70;74.60;;;;;;10466588;28;20028;-67
2022/10/26 02:24:54;;;;;;;1.55;1.05;;;16.70;75.30;;;;;;10467638;28;20016;-68
2022/10/26 02:29:58;;;;;;;1.45;1.10;;;16.70;74.70;;;;;;10457467;28;20424;-68
2022/10/26 02:35:01;;;;;;;6.63;1.55;;;16.70;74.70;;;;;;10440691;28;20053;-68
2022/10/26 02:40:08;;;;;;;0.95;0.73;;;16.70;74.70;;;;;;10457670;28;20021;-68
2022/10/26 02:45:16;;;;;;;1.17;0.82;;;16.70;74.70;;;;;;10479130;28;20036;-68
2022/10/26 02:50:20;;;;;;;1.60;0.80;;;16.70;74.70;;;;;;10473971;28;20033;-68
2022/10/26 02:55:33;;;;;;;1.30;0.93;;;16.70;74.70;;;;;;10450157;28;20020;-68
2022/10/26 03:00:34;;;;;;;1.27;0.82;;;16.70;74.70;;;;;;10465498;28;20098;-67
2022/10/26 03:05:38;;;;;;;2.03;0.90;;;16.70;74.70;;;;;;10429008;28;20426;-67
2022/10/26 03:10:44;;;;;;;1.80;1.10;;;16.70;74.70;;;;;;10450945;28;20710;-68
2022/10/26 03:15:45;;;;;;;1.45;1.08;;;16.70;74.80;;;;;;10464313;28;20032;-68
2022/10/26 03:20:46;;;;;;;1.38;0.93;;;16.70;74.80;;;;;;10449154;28;20031;-68
2022/10/26 03:25:46;;;;;;;1.42;1.10;;;16.60;74.70;;;;;;10457068;28;20175;-68
2022/10/26 03:30:47;;;;;;;1.67;1.00;;;16.70;74.80;;;;;;10472218;28;20040;-67
2022/10/26 03:35:55;;;;;;;1.42;0.88;;;16.60;74.70;;;;;;10467844;28;20029;-68
2022/10/26 03:40:56;;;;;;;1.42;0.90;;;16.60;74.80;;;;;;10471492;28;20488;-68
2022/10/26 03:45:56;;;;;;;1.67;0.90;;;16.60;74.80;;;;;;10489212;28;20081;-67
2022/10/26 03:50:58;;;;;;;1.70;0.95;;;16.60;74.80;;;;;;10487722;28;20116;-67
2022/10/26 03:55:59;;;;;;;1.65;0.90;;;16.60;74.80;;;;;;10447387;28;20656;-67
2022/10/26 04:00:59;;;;;;;1.55;1.02;;;16.60;74.80;;;;;;10447768;28;20049;-67
2022/10/26 04:06:02;;;;;;;1.27;0.85;;;16.60;74.80;;;;;;10487247;28;20527;-67
2022/10/26 04:11:02;;;;;;;2.30;1.23;;;16.60;74.90;;;;;;10487338;28;20017;-67
2022/10/26 04:16:03;;;;;;;1.88;1.33;;;16.60;74.90;;;;;;10468679;28;20024;-67
2022/10/26 04:21:04;;;;;;;1.63;1.05;;;16.60;74.90;;;;;;10462083;28;20032;-68
2022/10/26 04:26:05;;;;;;;1.90;1.27;;;16.60;74.90;;;;;;10446506;28;20039;-68
2022/10/26 04:31:06;;;;;;;1.23;1.10;;;16.60;74.90;;;;;;10446264;28;20033;-67
2022/10/26 04:36:07;;;;;;;1.58;1.10;;;16.60;74.90;;;;;;10461655;28;20089;-68
2022/10/26 04:41:08;;;;;;;2.20;1.10;;;16.60;74.90;;;;;;10446075;28;20405;-68
2022/10/26 04:46:08;;;;;;;1.85;1.17;;;16.60;74.90;;;;;;10483701;28;20053;-67
2022/10/26 04:51:09;;;;;;;1.60;0.90;;;16.60;74.90;;;;;;10486958;28;20614;-67
2022/10/26 04:56:10;;;;;;;1.88;1.02;;;16.60;74.90;;;;;;10485311;28;20025;-67
2022/10/26 05:01:10;;;;;;;1.65;1.15;;;16.50;74.90;;;;;;10485036;28;20028;-68
2022/10/26 05:06:11;;;;;;;1.90;1.25;;;16.60;74.90;;;;;;10481737;28;20052;-68
2022/10/26 05:11:12;;;;;;;1.63;0.90;;;16.60;74.90;;;;;;10466193;28;20057;-68
2022/10/26 05:16:15;;;;;;;1.42;1.10;;;16.50;74.90;;;;;;10468357;28;20032;-68
2022/10/26 05:21:18;;;;;;;2.28;0.70;;;16.50;74.90;;;;;;10460230;28;20445;-68
2022/10/26 05:26:22;;;;;;;1.65;1.00;;;16.50;74.90;;;;;;10472539;28;20519;-67
2022/10/26 05:31:23;;;;;;;1.10;0.80;;;16.50;74.90;;;;;;10459430;28;20013;-68
2022/10/26 05:36:24;;;;;;;1.35;0.93;;;16.50;74.90;;;;;;10459678;28;20376;-68
2022/10/26 05:41:25;;;;;;;1.75;1.00;;;16.50;74.90;;;;;;10459476;28;20158;-68
2022/10/26 05:46:25;;;;;;;1.23;1.00;;;16.50;74.90;;;;;;10483467;28;20073;-67
2022/10/26 05:51:26;;;;;;;1.77;1.35;;;16.50;74.90;;;;;;10443845;28;20047;-67
2022/10/26 05:56:38;;;;;;;1.70;1.02;;;16.50;74.90;;;;;;10497167;28;20044;-67
2022/10/26 06:02:07;;;;;;;1.55;0.93;;;16.50;74.90;;;;;;10466696;28;20024;-68
2022/10/26 06:07:13;;;;;;;1.40;0.73;;;16.50;75.00;;;;;;10446048;28;20086;-68
2022/10/26 06:12:15;;;;;;;1.85;1.13;;;16.50;75.10;;;;;;10443374;28;20009;-68
2022/10/26 06:17:53;;;;;;;1.02;0.90;;;16.50;75.00;;;;;;10441805;28;20543;-68
2022/10/26 06:23:22;;;;;;;1.75;1.00;;;16.50;75.00;;;;;;10463093;28;20028;-68
2022/10/26 06:28:44;;;;;;;1.00;0.70;;;16.50;75.00;;;;;;10442763;28;20135;-68
2022/10/26 06:33:45;;;;;;;1.67;1.42;;;16.50;75.00;;;;;;10458868;28;20027;-68
2022/10/26 06:38:54;;;;;;;1.33;1.05;;;16.50;75.00;;;;;;10460587;28;20381;-68
2022/10/26 06:43:55;;;;;;;1.15;1.05;;;16.50;75.00;;;;;;10483956;28;20029;-67
2022/10/26 06:49:29;;;;;;;1.58;1.10;;;16.50;75.00;;;;;;10479677;28;20102;-68
2022/10/26 06:54:53;;;;;;;1.50;0.55;;;16.50;75.00;;;;;;10445692;28;20071;-68
2022/10/26 07:00:00;;;;;;;1.60;0.90;;;16.50;75.00;;;;;;10443578;28;20010;-68
2022/10/26 07:05:01;;;;;;;1.48;1.10;;;16.40;75.00;;;;;;10445986;28;20406;-68
2022/10/26 07:10:02;;;;;;;1.55;0.73;;;16.40;75.00;;;;;;10458604;28;20136;-68
2022/10/26 07:15:04;;;;;;;1.15;0.85;;;16.40;75.00;;;;;;10450223;28;20032;-68
2022/10/26 07:20:05;;;;;;;1.02;0.80;;;16.50;75.00;;;;;;10443051;28;20408;-67
2022/10/26 07:25:06;;;;;;;1.02;0.80;;;16.40;75.00;;;;;;10479912;28;20020;-68
2022/10/26 07:30:08;;;;;;;1.17;0.90;;;16.40;75.10;;;;;;10489206;28;20060;-67
2022/10/26 07:35:09;;;;;;;1.45;0.90;;;16.40;75.10;;;;;;10473304;28;20008;-68
2022/10/26 07:40:10;;;;;;;1.92;1.10;;;16.50;75.00;;;;;;10491486;28;20024;-68
2022/10/26 07:45:10;;;;;;;0.90;0.70;;;16.40;75.00;;;;;;10473624;28;20024;-67
2022/10/26 07:50:12;;;;;;;1.42;0.95;;;16.40;75.00;;;;;;10464988;28;20033;-68
2022/10/26 07:55:12;;;;;;;1.15;0.90;;;16.50;75.00;;;;;;10458787;28;20017;-68
2022/10/26 08:00:14;;;;;;;2.10;0.90;;;16.40;75.30;;;;;;10459353;28;20028;-68
2022/10/26 08:05:15;;;;;;;1.65;1.00;;;16.50;75.40;;;;;;10497648;28;20024;-68
2022/10/26 08:10:16;;;;;;;1.40;0.80;;;16.50;75.90;;;;;;10489218;28;20029;-68
2022/10/26 08:15:17;;;;;;;1.10;0.77;;;16.50;75.70;;;;;;10472151;28;20017;-69
2022/10/26 08:20:17;;;;;;;1.15;0.60;;;16.50;75.80;;;;;;10464375;28;20025;-68
2022/10/26 08:25:18;;;;;;;1.08;0.82;;;16.60;75.90;;;;;;10463941;28;20431;-68
2022/10/26 08:30:19;;;;;;;1.30;0.80;;;16.60;75.80;;;;;;10473717;28;20139;-68
2022/10/26 08:35:20;;;;;;;0.98;0.88;;;16.60;75.60;;;;;;10488366;28;20009;-68
2022/10/26 08:40:33;;;;;;;1.13;0.85;;;16.60;75.50;;;;;;10462316;28;20044;-68
2022/10/26 08:45:43;;;;;;;1.67;1.17;;;16.60;75.40;;;;;;10460348;28;20116;-68
2022/10/26 08:51:05;;;;;;;1.50;0.75;;;16.70;75.40;;;;;;10462826;28;20037;-68
2022/10/26 08:56:22;;;;;;;0.77;0.60;;;16.70;75.40;;;;;;10467797;28;20030;-68
2022/10/26 09:01:23;;;;;;;1.45;0.80;;;16.70;75.40;;;;;;10473125;28;20025;-68
2022/10/26 09:06:56;;;;;;;0.98;0.70;;;16.70;75.40;;;;;;10470642;28;20068;-68
2022/10/26 09:12:26;;;;;;;1.95;1.05;;;16.70;75.30;;;;;;10446366;28;20021;-68
2022/10/26 09:17:41;;;;;;;1.10;0.75;;;16.70;75.40;;;;;;10461428;28;20052;-68
2022/10/26 09:23:09;;;;;;;1.20;1.00;;;16.70;75.50;;;;;;10471549;28;20055;-68
2022/10/26 09:28:16;;;;;;;4.50;0.88;;;16.80;75.40;;;;;;10468522;28;20141;-68
2022/10/26 09:33:23;;;;;;;1.30;0.70;;;16.70;75.30;;;;;;10459975;28;20013;-68
2022/10/26 09:38:46;;;;;;;1.15;0.73;;;16.80;75.40;;;;;;10471326;28;20028;-67
2022/10/26 09:44:18;;;;;;;1.25;0.85;;;16.80;75.30;;;;;;10485063;28;20020;-68
2022/10/26 09:49:25;;;;;;;1.83;0.95;;;16.80;75.40;;;;;;10447081;28;20029;-68
2022/10/26 09:54:26;;;;;;;1.13;0.77;;;16.90;75.40;;;;;;10484380;28;20016;-68
2022/10/26 09:59:29;;;;;;;1.45;0.85;;;16.90;75.30;;;;;;10486064;28;20479;-68
2022/10/26 10:04:32;;;;;;;2.15;1.20;;;16.90;75.20;;;;;;10464910;28;20017;-68
2022/10/26 10:09:33;;;;;;;0.85;0.68;;;16.90;75.20;;;;;;10442884;28;20033;-67
2022/10/26 10:14:39;;;;;;;1.63;0.98;;;16.90;75.30;;;;;;10459643;28;20017;-67
2022/10/26 10:19:40;;;;;;;0.70;0.52;;;16.90;75.30;;;;;;10459737;28;20021;-67
2022/10/26 10:24:56;;;;;;;1.40;0.90;;;17.00;75.30;;;;;;10443180;28;20236;-68
2022/10/26 10:30:35;;;;;;;1.58;0.85;;;17.00;75.20;;;;;;10459249;28;20033;-68
2022/10/26 10:35:37;;;;;;;1.23;0.80;;;17.00;75.20;;;;;;10469173;28;20028;-67
2022/10/26 10:40:38;;;;;;;0.90;0.70;;;17.10;75.20;;;;;;10465150;28;20008;-68
2022/10/26 10:45:40;;;;;;;0.90;0.50;;;17.10;75.20;;;;;;10494561;28;20016;-67
2022/10/26 10:51:00;;;;;;;1.20;0.80;;;17.10;75.10;;;;;;10479075;28;20485;-67
2022/10/26 10:56:31;;;;;;;1.17;0.70;;;17.10;75.00;;;;;;10483339;28;20063;-68
2022/10/26 11:01:42;;;;;;;1.33;0.80;;;17.20;75.00;;;;;;10455175;28;20118;-67
2022/10/26 11:06:47;;;;;;;1.00;0.82;;;17.20;75.10;;;;;;10456195;28;20747;-67
2022/10/26 11:12:00;;;;;;;1.27;0.90;;;17.20;75.10;;;;;;10451589;28;20013;-67
2022/10/26 11:17:10;;;;;;;0.77;0.60;;;17.20;75.10;;;;;;10465551;28;20082;-67
2022/10/26 11:22:29;;;;;;;1.60;0.70;;;17.30;75.20;;;;;;10474163;28;20033;-67
2022/10/26 11:27:42;;;;;;;1.75;0.90;;;17.20;75.20;;;;;;10459769;28;20512;-67
2022/10/26 11:33:17;;;;;;;1.08;0.60;;;17.30;75.20;;;;;;10450832;28;20025;-67
2022/10/26 11:38:42;;;;;;;1.67;1.00;;;17.20;75.20;;;;;;10448658;28;20566;-67
2022/10/26 11:43:49;;;;;;;1.15;0.80;;;17.10;75.30;;;;;;10489586;28;20103;-67
2022/10/26 11:49:13;;;;;;;1.13;0.85;;;17.10;75.40;;;;;;10455281;28;20498;-67
2022/10/26 11:54:36;;;;;;;0.82;0.50;;;17.10;75.50;;;;;;10449868;28;20025;-68
2022/10/26 11:59:46;;;;;;;1.17;0.75;;;17.00;75.60;;;;;;10464542;28;20018;-67
2022/10/26 12:05:14;;;;;;;1.85;1.02;;;17.00;75.70;;;;;;10480548;28;20368;-68
2022/10/26 12:10:28;;;;;;;1.25;0.85;;;17.00;75.70;;;;;;10472134;28;20032;-67
2022/10/26 12:15:33;;;;;;;1.10;0.90;;;17.00;75.80;;;;;;10455572;28;20070;-67
2022/10/26 12:21:04;;;;;;;1.00;0.70;;;17.00;75.80;;;;;;10471643;28;20040;-68
2022/10/26 12:26:23;;;;;;;1.30;0.75;;;17.00;75.70;;;;;;10472184;28;20701;-67
2022/10/26 12:31:42;;;;;;;1.33;0.73;;;17.10;75.60;;;;;;10471280;28;20105;-67
2022/10/26 12:36:55;;;;;;;0.85;0.57;;;17.10;75.60;;;;;;10488287;28;20075;-68
2022/10/26 12:42:09;;;;;;;1.20;0.60;;;17.10;75.70;;;;;;10448977;28;20437;-67
2022/10/26 12:47:28;;;;;;;1.52;1.05;;;17.10;75.60;;;;;;10487907;28;20115;-67
2022/10/26 12:53:04;;;;;;;1.10;0.80;;;17.10;75.50;;;;;;10480518;28;20028;-68
2022/10/26 12:58:20;;;;;;;1.15;0.70;;;17.20;75.60;;;;;;10470590;28;20051;-67
2022/10/26 13:03:31;;;;;;;0.93;0.52;;;17.20;75.70;;;;;;10481709;28;20017;-67
2022/10/26 13:08:49;;;;;;;0.75;0.57;;;17.10;75.60;;;;;;10470044;28;20017;-67
2022/10/26 13:13:55;;;;;;;1.48;0.88;;;17.10;75.60;;;;;;10443018;28;20033;-68
2022/10/26 13:18:58;;;;;;;0.70;0.60;;;17.10;75.60;;;;;;10469755;28;20017;-67
2022/10/26 13:24:05;;;;;;;1.13;1.02;;;17.20;75.70;;;;;;10469570;28;20036;-67
2022/10/26 13:29:09;;;;;;;1.58;1.00;;;17.20;75.70;;;;;;10443820;28;20045;-68
2022/10/26 13:34:19;;;;;;;1.40;0.90;;;17.20;75.70;;;;;;10461244;28;20124;-68
2022/10/26 13:39:28;;;;;;;1.30;0.88;;;17.20;75.60;;;;;;10460660;28;20033;-67
2022/10/26 13:44:39;;;;;;;2.05;0.70;;;17.20;75.70;;;;;;10460450;28;20039;-67
2022/10/26 13:49:44;;;;;;;1.05;0.82;;;17.20;75.70;;;;;;10443659;28;20036;-67
2022/10/26 13:54:55;;;;;;;0.68;0.55;;;17.20;75.70;;;;;;10443754;28;20025;-68
2022/10/26 13:59:57;;;;;;;1.10;0.95;;;17.20;75.70;;;;;;10459815;28;20025;-67
2022/10/26 14:05:04;;;;;;;0.90;0.80;;;17.20;75.70;;;;;;10457669;28;20127;-67
2022/10/26 14:10:05;;;;;;;1.77;1.10;;;17.20;75.70;;;;;;10460298;28;20033;-67
2022/10/26 14:15:08;;;;;;;1.52;1.00;;;17.20;75.70;;;;;;10443016;28;20476;-67
2022/10/26 14:20:19;;;;;;;1.38;0.90;;;17.20;75.70;;;;;;10443123;28;20025;-67
2022/10/26 14:25:27;;;;;;;1.02;0.70;;;17.10;75.70;;;;;;10459502;28;20651;-67
2022/10/26 14:30:31;;;;;;;0.85;0.60;;;17.20;75.80;;;;;;10442203;28;20041;-67
2022/10/26 14:35:36;;;;;;;1.25;0.80;;;17.10;75.70;;;;;;10458873;28;20013;-67
2022/10/26 14:40:37;;;;;;;1.08;0.80;;;17.10;75.80;;;;;;10465693;28;20506;-67
2022/10/26 14:45:38;;;;;;;1.80;0.70;;;17.10;75.80;;;;;;10467735;28;20025;-67
2022/10/26 14:50:40;;;;;;;1.00;0.60;;;17.10;75.90;;;;;;10467560;28;20022;-67
2022/10/26 14:56:00;;;;;;;0.70;0.50;;;17.10;75.80;;;;;;10452084;28;20078;-67
2022/10/26 15:01:30;;;;;;;1.38;0.77;;;17.10;75.80;;;;;;10462082;28;20388;-67
2022/10/26 15:06:37;;;;;;;1.35;0.88;;;17.10;75.80;;;;;;10458541;28;20495;-68
2022/10/26 15:11:42;;;;;;;1.38;1.02;;;17.10;75.90;;;;;;10449869;28;20644;-67
2022/10/26 15:16:55;;;;;;;3.30;0.77;;;17.00;75.90;;;;;;10452953;28;20017;-67
2022/10/26 15:21:56;;;;;;;1.20;0.60;;;17.00;75.80;;;;;;10450030;28;20044;-67
2022/10/26 15:26:57;;;;;;;0.80;0.60;;;17.10;75.90;;;;;;10457501;28;20060;-68
2022/10/26 15:32:03;;;;;;;1.00;0.80;;;17.10;75.90;;;;;;10492869;28;20025;-67
2022/10/26 15:37:04;;;;;;;1.33;0.90;;;17.10;75.90;;;;;;10472937;28;20486;-67
2022/10/26 15:42:12;;;;;;;1.05;0.60;;;17.00;75.80;;;;;;10465724;28;20044;-67
2022/10/26 15:47:18;;;;;;;1.00;0.57;;;17.10;75.90;;;;;;10490142;28;20032;-67
2022/10/26 15:52:19;;;;;;;1.35;0.57;;;17.00;75.90;;;;;;10464770;28;20071;-67
2022/10/26 15:57:19;;;;;;;0.60;0.60;;;17.00;75.90;;;;;;10449813;28;20122;-67
2022/10/26 16:02:20;;;;;;;1.17;0.77;;;17.00;75.80;;;;;;10489397;28;20031;-67
2022/10/26 16:07:25;;;;;;;0.77;0.70;;;17.00;75.90;;;;;;10487866;28;20166;-67
2022/10/26 16:12:26;;;;;;;1.45;0.80;;;17.00;75.90;;;;;;10460440;28;20028;-67
2022/10/26 16:17:26;;;;;;;0.90;0.60;;;17.00;75.80;;;;;;10485418;28;20436;-67
2022/10/26 16:22:27;;;;;;;0.93;0.75;;;17.00;75.80;;;;;;10488860;28;20131;-67
2022/10/26 16:27:28;;;;;;;1.15;0.68;;;17.00;75.80;;;;;;10471741;28;20131;-67
2022/10/26 16:32:28;;;;;;;0.52;0.50;;;17.00;75.80;;;;;;10471558;28;20468;-67
2022/10/26 16:37:30;;;;;;;1.25;0.90;;;17.00;75.80;;;;;;10488070;28;20115;-67
2022/10/26 16:42:31;;;;;;;0.90;0.70;;;17.00;75.80;;;;;;10481796;28;20028;-67
2022/10/26 16:47:34;;;;;;;0.82;0.52;;;17.00;75.80;;;;;;10480349;28;20033;-67
2022/10/26 16:52:36;;;;;;;1.38;0.80;;;17.00;75.80;;;;;;10465026;28;20036;-67
2022/10/26 16:57:37;;;;;;;1.02;0.70;;;17.00;75.80;;;;;;10468836;28;20009;-67
2022/10/26 17:02:38;;;;;;;1.13;0.80;;;17.00;75.80;;;;;;10457342;28;20013;-67
2022/10/26 17:07:39;;;;;;;1.00;0.70;;;17.00;75.70;;;;;;10485374;28;20332;-67
2022/10/26 17:12:39;;;;;;;1.00;0.80;;;17.00;75.80;;;;;;10467919;28;20100;-67
2022/10/26 17:17:40;;;;;;;1.33;0.77;;;17.00;75.70;;;;;;10465521;28;20032;-68
2022/10/26 17:22:41;;;;;;;0.77;0.50;;;17.00;75.70;;;;;;10443503;28;20112;-67
2022/10/26 17:27:41;;;;;;;2.10;0.90;;;17.00;75.70;;;;;;10459826;28;20475;-67
2022/10/26 17:32:42;;;;;;;1.10;0.70;;;17.00;75.70;;;;;;10459815;28;20048;-68
2022/10/26 17:37:43;;;;;;;1.15;0.70;;;17.00;75.70;;;;;;10459499;28;20778;-67
2022/10/26 17:42:43;;;;;;;0.65;0.50;;;17.00;75.60;;;;;;10464304;28;20162;-67
2022/10/26 17:47:44;;;;;;;1.08;0.77;;;17.00;75.70;;;;;;10457562;28;20047;-67
2022/10/26 17:52:45;;;;;;;0.95;0.60;;;17.00;75.70;;;;;;10467182;28;20048;-67
2022/10/26 17:57:46;;;;;;;1.35;0.70;;;17.00;75.60;;;;;;10455194;28;20488;-67
2022/10/26 18:02:47;;;;;;;0.60;0.60;;;17.00;75.70;;;;;;10445531;28;20100;-67
2022/10/26 18:07:48;;;;;;;0.60;0.50;;;17.00;75.70;;;;;;10482744;28;20361;-67
2022/10/26 18:12:48;;;;;;;0.75;0.50;;;17.00;75.60;;;;;;10481430;28;20447;-67
2022/10/26 18:17:50;;;;;;;0.65;0.50;;;17.00;75.60;;;;;;10458164;28;20024;-67
2022/10/26 18:22:51;;;;;;;0.90;0.65;;;17.00;75.60;;;;;;10458177;28;20107;-67
2022/10/26 18:27:52;;;;;;;1.05;0.60;;;17.00;75.60;;;;;;10465850;28;20068;-67
2022/10/26 18:32:52;;;;;;;2.45;1.02;;;17.00;75.60;;;;;;10483390;28;20035;-67
2022/10/26 18:37:53;;;;;;;1.65;0.80;;;17.00;75.60;;;;;;10427874;28;20024;-67
2022/10/26 18:42:54;;;;;;;1.33;0.75;;;17.00;75.50;;;;;;10457351;28;20099;-67
2022/10/26 18:47:55;;;;;;;0.60;0.47;;;17.00;75.50;;;;;;10482125;28;20237;-67
2022/10/26 18:52:56;;;;;;;0.70;0.50;;;17.00;75.50;;;;;;10458180;28;20054;-67
2022/10/26 18:57:56;;;;;;;0.65;0.50;;;17.00;75.50;;;;;;10464968;28;20107;-67
2022/10/26 19:02:57;;;;;;;0.60;0.50;;;17.00;75.50;;;;;;10454470;28;20344;-67
2022/10/26 19:07:58;;;;;;;0.90;0.65;;;17.00;76.10;;;;;;10482314;28;20093;-67
2022/10/26 19:13:00;;;;;;;0.50;0.50;;;17.00;75.50;;;;;;10478609;28;20325;-67
2022/10/26 19:18:01;;;;;;;2.13;0.60;;;17.00;75.40;;;;;;10464707;28;20477;-67
2022/10/26 19:23:02;;;;;;;0.88;0.60;;;17.00;75.50;;;;;;10446641;28;20099;-67
2022/10/26 19:28:03;;;;;;;1.23;0.80;;;17.00;75.40;;;;;;10449405;28;20579;-67
2022/10/26 19:33:03;;;;;;;1.30;0.90;;;17.00;75.40;;;;;;10498811;28;20023;-67
2022/10/26 19:38:04;;;;;;;1.63;0.93;;;17.00;76.00;;;;;;10488601;28;20108;-67
2022/10/26 19:43:05;;;;;;;1.55;0.90;;;17.00;75.40;;;;;;10488803;28;20035;-67
2022/10/26 19:48:06;;;;;;;1.17;0.73;;;17.00;75.40;;;;;;10460042;28;20112;-67
2022/10/26 19:53:07;;;;;;;0.93;0.60;;;17.00;75.40;;;;;;10463565;28;20025;-67
2022/10/26 19:58:07;;;;;;;0.60;0.45;;;17.00;75.40;;;;;;10471191;28;20428;-67
2022/10/26 20:03:11;;;;;;;0.73;0.60;;;17.00;75.40;;;;;;10471350;28;20130;-67
2022/10/26 20:08:12;;;;;;;0.93;0.70;;;17.00;75.40;;;;;;10488113;28;20047;-67
2022/10/26 20:13:13;;;;;;;0.70;0.50;;;17.00;75.40;;;;;;10488002;28;20027;-67
2022/10/26 20:18:14;;;;;;;0.90;0.73;;;17.00;75.30;;;;;;10487239;28;20040;-67
2022/10/26 20:23:15;;;;;;;0.93;0.80;;;17.00;75.30;;;;;;10487392;28;20190;-67
2022/10/26 20:28:18;;;;;;;1.40;0.60;;;17.00;75.40;;;;;;10453313;28;20102;-67
2022/10/26 20:33:19;;;;;;;1.10;0.73;;;17.00;75.40;;;;;;10487303;28;20471;-67
2022/10/26 20:38:20;;;;;;;1.15;0.65;;;17.00;75.40;;;;;;10469862;28;20063;-67
2022/10/26 20:43:22;;;;;;;1.10;0.60;;;17.00;75.30;;;;;;10461403;28;20469;-67
2022/10/26 20:48:23;;;;;;;1.20;0.93;;;17.00;75.30;;;;;;10485792;28;20037;-67
2022/10/26 20:53:55;;;;;;;1.23;0.60;;;17.00;75.30;;;;;;10457434;28;20477;-67
2022/10/26 20:58:58;;;;;;;0.98;0.63;;;17.00;75.30;;;;;;10430521;28;20087;-67
2022/10/26 21:04:02;;;;;;;1.08;0.70;;;17.00;75.30;;;;;;10472730;28;20028;-67
2022/10/26 21:09:03;;;;;;;0.93;0.65;;;17.00;75.30;;;;;;10484939;28;20052;-67
2022/10/26 21:14:05;;;;;;;0.70;0.60;;;17.00;75.30;;;;;;10486384;28;20492;-67
2022/10/26 21:19:07;;;;;;;0.50;0.40;;;17.00;75.20;;;;;;10455364;28;20025;-67
2022/10/26 21:24:07;;;;;;;1.13;0.57;;;17.00;75.20;;;;;;10487132;28;20032;-67
2022/10/26 21:29:09;;;;;;;1.52;0.60;;;17.00;75.20;;;;;;10484522;28;20048;-67
2022/10/26 21:34:10;;;;;;;1.13;0.60;;;17.00;75.20;;;;;;10484054;28;20027;-67
2022/10/26 21:39:11;;;;;;;1.48;0.60;;;17.00;75.20;;;;;;10485165;28;20052;-67
2022/10/26 21:44:11;;;;;;;1.10;0.77;;;17.00;75.20;;;;;;10484973;28;20013;-67
2022/10/26 21:49:12;;;;;;;1.10;0.60;;;17.00;75.20;;;;;;10476385;28;20036;-67
2022/10/26 21:54:13;;;;;;;1.75;0.98;;;17.00;75.20;;;;;;10466842;28;20051;-67
2022/10/26 21:59:13;;;;;;;0.88;0.60;;;17.00;75.20;;;;;;10484751;28;20063;-67
2022/10/26 22:04:14;;;;;;;0.95;0.65;;;17.00;75.20;;;;;;10466179;28;20109;-67
2022/10/26 22:09:15;;;;;;;1.33;0.80;;;17.00;75.20;;;;;;10483009;28;20568;-67
2022/10/26 22:14:16;;;;;;;1.02;0.75;;;17.00;75.20;;;;;;10484446;28;20064;-67
2022/10/26 22:19:17;;;;;;;1.00;0.80;;;17.00;75.20;;;;;;10482853;28;20021;-67
2022/10/26 22:24:18;;;;;;;1.10;0.80;;;17.00;75.10;;;;;;10483082;28;20337;-67
2022/10/26 22:29:19;;;;;;;1.38;0.60;;;17.00;75.20;;;;;;10482513;28;20071;-67
2022/10/26 22:34:19;;;;;;;1.25;1.10;;;17.00;75.10;;;;;;10482730;28;20070;-67
2022/10/26 22:39:20;;;;;;;0.50;0.50;;;17.00;75.10;;;;;;10484633;28;20376;-67
2022/10/26 22:44:21;;;;;;;0.90;0.60;;;17.00;75.10;;;;;;10482494;28;20527;-67
2022/10/26 22:49:21;;;;;;;1.25;0.68;;;17.00;75.10;;;;;;10443000;28;20041;-67
2022/10/26 22:54:22;;;;;;;1.23;0.57;;;17.00;75.10;;;;;;10482618;28;20091;-67
2022/10/26 22:59:23;;;;;;;1.10;0.70;;;17.00;75.10;;;;;;10456518;28;20025;-68
2022/10/26 23:04:23;;;;;;;1.15;0.77;;;17.00;75.10;;;;;;10453225;28;20104;-67
2022/10/26 23:09:24;;;;;;;0.65;0.65;;;17.00;75.10;;;;;;10489757;28;20032;-67
2022/10/26 23:14:25;;;;;;;1.27;0.95;;;17.00;75.10;;;;;;10458275;28;20017;-68
2022/10/26 23:19:25;;;;;;;1.35;0.68;;;17.00;75.10;;;;;;10449387;28;20118;-67
2022/10/26 23:24:26;;;;;;;1.23;0.80;;;16.90;75.00;;;;;;10464662;28;20479;-67
2022/10/26 23:29:27;;;;;;;1.02;0.70;;;17.00;75.10;;;;;;10448793;28;20121;-67
2022/10/26 23:34:27;;;;;;;0.95;0.75;;;17.00;75.10;;;;;;10448838;28;20115;-67
2022/10/26 23:39:28;;;;;;;0.77;0.65;;;17.00;75.10;;;;;;10471825;28;20036;-67
2022/10/26 23:44:29;;;;;;;1.23;0.80;;;17.00;75.10;;;;;;10442680;28;20115;-67
2022/10/26 23:49:29;;;;;;;1.10;0.70;;;16.90;75.00;;;;;;10478232;28;20021;-67
2022/10/26 23:54:30;;;;;;;0.60;0.57;;;16.90;75.00;;;;;;10472128;28;20008;-67
2022/10/26 23:59:30;;;;;;;1.15;0.70;;;17.00;75.60;;;;;;10458859;28;20127;-67
